»·PEaware :: N343GE KSNA-KBUR

N343GE :: KSNA-KBUR

FLIGHT INFORMATION

Flight Status: Arrived
Operator: Privately registered:
United States
More flights under this callsign
Pilot: Hyatt B. (30410)
Aircraft: SOCATA TBM-900
(TBM9)
More flights by this aircraft type
Origin: KSNA John Wayne-Orange Co
United States
Destination: KBUR Bob Hope-Burbank
United States
More flights between these airports :: More routes between these airports
Route: +SLI V23 LAX LAX316R SILEX
File this flight plan on PilotEdge
Remarks:
Altitude:
(Current/Filed)
4,000ft
Speed:
(Current/Filed)
140kts
Departed: 25-Jul-20 09:33 AM
Arrived: 25-Jul-20 10:06 AM
Distance/Time
Traveled:
40nm/0:33
Distance/Time
To Go:
Arrived

Flight Plot

Page will automatically refresh every two minutes.


Map Options




Map Legend


Flown Route
Filed Route
Departure Airport
Arrival Airport
Navaid (VOR, NDB)
Fix

Horizontal Profiles

Position Reports

Time Latitude Longitude Heading Altitude Ground
Speed
25-Jul-20 08:47 33.670886 -117.867580 32 52ft 0kts
25-Jul-20 08:48 33.670886 -117.867580 32 52ft 0kts
25-Jul-20 08:49 33.670886 -117.867580 32 52ft 0kts
25-Jul-20 08:50 33.670886 -117.867580 32 52ft 0kts
25-Jul-20 08:51 33.670886 -117.867580 32 52ft 0kts
25-Jul-20 08:52 33.670886 -117.867580 32 52ft 0kts
25-Jul-20 08:53 33.670886 -117.867580 32 52ft 0kts
25-Jul-20 08:54 33.670886 -117.867580 32 52ft 0kts
25-Jul-20 08:55 33.670886 -117.867580 32 52ft 0kts
25-Jul-20 08:56 33.670886 -117.867580 32 52ft 0kts
25-Jul-20 08:57 33.670886 -117.867580 32 52ft 0kts
25-Jul-20 08:58 33.670886 -117.867580 32 52ft 0kts
25-Jul-20 08:59 33.670886 -117.867580 32 52ft 0kts
25-Jul-20 09:00 33.670886 -117.867580 32 52ft 0kts
25-Jul-20 09:01 33.670886 -117.867580 32 52ft 0kts
25-Jul-20 09:02 33.670886 -117.867580 32 52ft 0kts
25-Jul-20 09:03 33.670886 -117.867580 32 52ft 0kts
25-Jul-20 09:04 33.670886 -117.867580 32 52ft 0kts
25-Jul-20 09:05 33.670886 -117.867580 32 52ft 0kts
25-Jul-20 09:06 33.670886 -117.867580 32 52ft 0kts
25-Jul-20 09:07 33.670886 -117.867580 32 52ft 0kts
25-Jul-20 09:08 33.670886 -117.867580 32 52ft 0kts
25-Jul-20 09:09 33.670886 -117.867580 32 52ft 0kts
25-Jul-20 09:10 33.670886 -117.867580 32 52ft 0kts
25-Jul-20 09:11 33.670886 -117.867580 32 52ft 0kts
25-Jul-20 09:12 33.670886 -117.867580 32 52ft 0kts
25-Jul-20 09:13 33.670886 -117.867580 32 52ft 0kts
25-Jul-20 09:14 33.670886 -117.867580 32 52ft 0kts
25-Jul-20 09:15 33.670886 -117.867580 32 52ft 0kts
25-Jul-20 09:16 33.670886 -117.867580 32 52ft 0kts
25-Jul-20 09:17 33.670886 -117.867580 32 52ft 0kts
25-Jul-20 09:18 33.670886 -117.867580 32 52ft 0kts
25-Jul-20 09:19 33.670886 -117.867580 32 52ft 0kts
25-Jul-20 09:20 33.670886 -117.867580 32 52ft 0kts
25-Jul-20 09:21 33.670886 -117.867580 32 52ft 0kts
25-Jul-20 09:22 33.670886 -117.867580 32 52ft 0kts
25-Jul-20 09:23 33.670886 -117.867580 32 52ft 0kts
25-Jul-20 09:24 33.671060 -117.867588 321 52ft 4kts
25-Jul-20 09:25 33.672582 -117.867846 30 51ft 9kts
25-Jul-20 09:26 33.674374 -117.866961 27 49ft 10kts
25-Jul-20 09:27 33.677145 -117.865201 27 43ft 9kts
25-Jul-20 09:28 33.679398 -117.863768 28 40ft 6kts
25-Jul-20 09:29 33.679958 -117.863595 298 40ft 0kts
25-Jul-20 09:30 33.680039 -117.863781 297 40ft 5kts
25-Jul-20 09:31 33.680508 -117.865792 211 41ft 9kts
25-Jul-20 09:32 33.656326 -117.877583 186 806ft 122kts
25-Jul-20 09:33 33.622281 -117.883609 186 2244ft 134kts
25-Jul-20 09:34 33.584589 -117.890355 186 3530ft 144kts
25-Jul-20 09:35 33.545400 -117.897403 186 4912ft 142kts
25-Jul-20 09:36 33.503041 -117.907038 211 5005ft 163kts
25-Jul-20 09:37 33.502396 -117.957165 311 5265ft 161kts
25-Jul-20 09:38 33.539977 -117.981765 331 6024ft 161kts
25-Jul-20 09:39 33.581757 -118.011943 329 6020ft 183kts
25-Jul-20 09:40 33.622513 -118.048969 316 6016ft 183kts
25-Jul-20 09:41 33.657813 -118.091907 315 6017ft 180kts
25-Jul-20 09:42 33.692673 -118.134735 315 6018ft 179kts
25-Jul-20 09:43 33.727479 -118.177600 315 6018ft 179kts
25-Jul-20 09:44 33.762117 -118.220313 315 6018ft 179kts
25-Jul-20 09:45 33.796887 -118.263246 315 6018ft 179kts
25-Jul-20 09:46 33.831725 -118.306317 315 6018ft 179kts
25-Jul-20 09:47 33.866408 -118.349083 313 6023ft 177kts
25-Jul-20 09:48 33.900466 -118.391443 312 6017ft 175kts
25-Jul-20 09:49 33.934725 -118.433019 325 6009ft 177kts
25-Jul-20 09:50 33.977949 -118.461964 329 6011ft 179kts
25-Jul-20 09:51 34.022791 -118.487916 351 5981ft 183kts
25-Jul-20 09:52 34.066348 -118.512112 322 5001ft 166kts
25-Jul-20 09:53 34.099872 -118.542563 322 4080ft 142kts
25-Jul-20 09:54 34.129135 -118.569185 322 4011ft 137kts
25-Jul-20 09:55 34.159289 -118.596881 322 4002ft 135kts
25-Jul-20 09:56 34.188822 -118.624363 328 4000ft 133kts
25-Jul-20 09:57 34.205662 -118.610406 121 3466ft 122kts
25-Jul-20 09:58 34.200824 -118.573045 93 3058ft 105kts
25-Jul-20 09:59 34.200222 -118.533679 92 3007ft 122kts
25-Jul-20 10:00 34.199701 -118.496645 92 2782ft 105kts
25-Jul-20 10:01 34.199407 -118.476743 92 2496ft 108kts
25-Jul-20 10:02 34.198890 -118.440261 92 1923ft 109kts
25-Jul-20 10:03 34.198418 -118.406271 91 1390ft 92kts
25-Jul-20 10:04 34.197983 -118.376919 92 959ft 83kts
25-Jul-20 10:05 34.197767 -118.359343 91 715ft 13kts
25-Jul-20 10:06 34.196972 -118.357997 181 710ft 4kts
25-Jul-20 10:07 34.195697 -118.359072 186 707ft 0kts
25-Jul-20 10:08 34.195697 -118.359072 186 707ft 0kts
25-Jul-20 10:09 34.195697 -118.359072 186 707ft 0kts

Navigation Log

Ident Type
Flight plan parsing failed, navigation log unavailable